sensor_id;sensor_type;location;lat;lon;timestamp;temperature;humidity
26041;DHT22;13816;53.628;9.950;2023-04-25T07:58:39;14.90;99.90
26041;DHT22;13816;53.628;9.950;2023-04-25T08:01:09;8.40;99.90
26041;DHT22;13816;53.628;9.950;2023-04-25T08:04:05;8.20;99.90
26041;DHT22;13816;53.628;9.950;2023-04-25T08:06:49;8.30;99.90
26041;DHT22;13816;53.628;9.950;2023-04-25T08:09:22;8.30;99.90
26041;DHT22;13816;53.628;9.950;2023-04-25T08:11:50;8.30;99.90
26041;DHT22;13816;53.628;9.950;2023-04-25T08:14:22;8.60;99.90
26041;DHT22;13816;53.628;9.950;2023-04-25T08:16:50;8.10;99.90
26041;DHT22;13816;53.628;9.950;2023-04-25T08:19:18;8.00;99.90
26041;DHT22;13816;53.628;9.950;2023-04-25T08:21:46;7.90;99.90
26041;DHT22;13816;53.628;9.950;2023-04-25T08:24:18;7.80;99.90
26041;DHT22;13816;53.628;9.950;2023-04-25T08:26:45;7.70;99.90
26041;DHT22;13816;53.628;9.950;2023-04-25T08:29:15;7.60;99.90
26041;DHT22;13816;53.628;9.950;2023-04-25T08:31:43;7.60;99.90
26041;DHT22;13816;53.628;9.950;2023-04-25T08:34:13;7.80;99.90
26041;DHT22;13816;53.628;9.950;2023-04-25T08:36:47;7.90;99.90
26041;DHT22;13816;53.628;9.950;2023-04-25T08:39:23;7.90;99.90
26041;DHT22;13816;53.628;9.950;2023-04-25T08:42:11;7.90;99.90
26041;DHT22;13816;53.628;9.950;2023-04-25T08:44:38;7.90;99.90
26041;DHT22;13816;53.628;9.950;2023-04-25T08:47:06;7.90;99.90
26041;DHT22;13816;53.628;9.950;2023-04-25T08:49:44;7.90;99.90
26041;DHT22;13816;53.628;9.950;2023-04-25T08:52:15;7.90;99.90
26041;DHT22;13816;53.628;9.950;2023-04-25T08:54:48;7.80;99.90
26041;DHT22;13816;53.628;9.950;2023-04-25T08:57:18;8.00;99.90
26041;DHT22;13816;53.628;9.950;2023-04-25T08:59:48;8.20;99.90
26041;DHT22;13816;53.628;9.950;2023-04-25T09:02:17;8.40;99.90
26041;DHT22;13816;53.628;9.950;2023-04-25T09:04:49;8.40;99.90
26041;DHT22;13816;53.628;9.950;2023-04-25T09:07:16;8.40;99.90
26041;DHT22;13816;53.628;9.950;2023-04-25T09:09:47;8.30;99.90
26041;DHT22;13816;53.628;9.950;2023-04-25T09:12:20;8.40;99.90
26041;DHT22;13816;53.628;9.950;2023-04-25T09:15:06;8.20;99.90
26041;DHT22;13816;53.628;9.950;2023-04-25T09:18:03;8.20;99.90
26041;DHT22;13816;53.628;9.950;2023-04-25T09:20:47;8.40;99.90
26041;DHT22;13816;53.628;9.950;2023-04-25T09:23:26;8.30;99.90
26041;DHT22;13816;53.628;9.950;2023-04-25T09:25:53;8.50;99.90
26041;DHT22;13816;53.628;9.950;2023-04-25T09:28:25;8.60;99.90
26041;DHT22;13816;53.628;9.950;2023-04-25T09:30:56;8.90;99.90
26041;DHT22;13816;53.628;9.950;2023-04-25T09:33:34;9.10;99.90
26041;DHT22;13816;53.628;9.950;2023-04-25T09:36:09;9.10;99.90
26041;DHT22;13816;53.628;9.950;2023-04-25T09:39:12;8.70;99.90
26041;DHT22;13816;53.628;9.950;2023-04-25T09:41:47;8.10;99.90
26041;DHT22;13816;53.628;9.950;2023-04-25T09:44:14;7.80;99.90
26041;DHT22;13816;53.628;9.950;2023-04-25T09:46:43;7.70;99.90
26041;DHT22;13816;53.628;9.950;2023-04-25T09:49:20;7.70;99.90
26041;DHT22;13816;53.628;9.950;2023-04-25T09:51:59;7.70;99.90
26041;DHT22;13816;53.628;9.950;2023-04-25T09:54:52;7.90;99.90
26041;DHT22;13816;53.628;9.950;2023-04-25T09:57:26;8.20;99.90
26041;DHT22;13816;53.628;9.950;2023-04-25T09:59:55;8.30;99.90
26041;DHT22;13816;53.628;9.950;2023-04-25T10:02:26;8.60;99.90
26041;DHT22;13816;53.628;9.950;2023-04-25T10:05:05;8.70;99.90
26041;DHT22;13816;53.628;9.950;2023-04-25T10:07:38;8.80;99.90
26041;DHT22;13816;53.628;9.950;2023-04-25T10:10:12;8.80;99.90
26041;DHT22;13816;53.628;9.950;2023-04-25T10:12:40;8.90;99.90
26041;DHT22;13816;53.628;9.950;2023-04-25T10:15:09;8.90;99.90
26041;DHT22;13816;53.628;9.950;2023-04-25T10:17:38;9.00;99.90
26041;DHT22;13816;53.628;9.950;2023-04-25T10:20:07;9.10;99.90
26041;DHT22;13816;53.628;9.950;2023-04-25T10:22:41;9.30;99.90
26041;DHT22;13816;53.628;9.950;2023-04-25T10:25:08;9.30;99.90
26041;DHT22;13816;53.628;9.950;2023-04-25T10:27:36;9.30;99.90
26041;DHT22;13816;53.628;9.950;2023-04-25T10:30:14;9.20;99.90
26041;DHT22;13816;53.628;9.950;2023-04-25T10:32:43;9.30;99.90
26041;DHT22;13816;53.628;9.950;2023-04-25T10:35:18;9.50;99.90
26041;DHT22;13816;53.628;9.950;2023-04-25T10:38:16;9.80;99.90
26041;DHT22;13816;53.628;9.950;2023-04-25T10:41:03;9.90;99.90
